Harrisburg, Arkansas
Current Conditions -  °F | °C
As of 6:53 PM on Friday 28 Nov 2014 (Local Time) from KJBR Reporting Station
Clear Clear  
Wind Chill: 38°   Ceiling: Unl
Heat Index: 44°   Visibility: 10mi
Dew Point: 35°   Wind: 12mph
Humidity: 71%   Direction: 180°S
Pressure: 30.08"   Gusts: NA
Location:  35.56°N, 90.72°W
Report Text: KJBR 290053Z AUTO 18010KT 10SM CLR 07/02 A3008 RMK AO2 SLP187 T00670017
Loading
Personal Weather Stations






























Interactive Weather Map New forecast layout! Learn more

10-Day Weather Forecast

Advertisements
Track Severe Weather on mobile